createdAt,value
2019-06-15T00:00:23.772Z,14.30
2019-06-15T00:02:58.564Z,14.30
2019-06-15T00:05:32.101Z,14.20
2019-06-15T00:08:05.065Z,14.20
2019-06-15T00:10:38.559Z,14.20
2019-06-15T00:13:12.235Z,14.20
2019-06-15T00:15:44.384Z,14.20
2019-06-15T00:18:19.755Z,14.20
2019-06-15T00:20:53.503Z,14.20
2019-06-15T00:23:27.679Z,14.20
2019-06-15T00:26:02.057Z,14.20
2019-06-15T00:28:35.688Z,14.20
2019-06-15T00:31:08.531Z,14.20
2019-06-15T00:33:41.633Z,14.20
2019-06-15T00:36:14.497Z,14.20
2019-06-15T00:38:46.149Z,14.20
2019-06-15T00:41:18.136Z,14.20
2019-06-15T00:43:53.759Z,14.20
2019-06-15T00:46:28.025Z,14.20
2019-06-15T00:48:59.750Z,14.20
2019-06-15T00:51:33.760Z,14.20
2019-06-15T00:54:05.928Z,14.10
2019-06-15T00:56:39.719Z,14.10
2019-06-15T00:59:09.703Z,14.00
2019-06-15T01:01:40.683Z,13.90
2019-06-15T01:04:13.089Z,13.90
2019-06-15T01:06:45.664Z,13.80
2019-06-15T01:09:20.831Z,13.80
2019-06-15T01:11:54.526Z,13.80
2019-06-15T01:14:29.192Z,13.70
2019-06-15T01:17:02.477Z,13.70
2019-06-15T01:19:34.887Z,13.60
2019-06-15T01:22:07.154Z,13.60
2019-06-15T01:24:38.118Z,13.60
2019-06-15T01:27:10.725Z,13.50
2019-06-15T01:29:47.435Z,13.50
2019-06-15T01:32:23.208Z,13.40
2019-06-15T01:34:57.825Z,13.30
2019-06-15T01:37:28.368Z,13.20
2019-06-15T01:40:02.975Z,13.20
2019-06-15T01:42:34.544Z,13.10
2019-06-15T01:45:08.903Z,13.10
2019-06-15T01:47:38.883Z,13.00
2019-06-15T01:50:10.243Z,12.90
2019-06-15T01:52:44.104Z,12.90
2019-06-15T01:55:20.824Z,12.90
2019-06-15T01:57:54.717Z,12.80
2019-06-15T02:00:31.343Z,12.70
2019-06-15T02:03:01.582Z,12.70
2019-06-15T02:05:34.756Z,12.60
2019-06-15T02:08:08.769Z,12.60
2019-06-15T02:10:41.575Z,12.50
2019-06-15T02:13:14.343Z,12.40
2019-06-15T02:15:48.327Z,12.40
2019-06-15T02:18:21.751Z,12.40
2019-06-15T02:21:01.183Z,12.40
2019-06-15T02:23:39.104Z,12.30
2019-06-15T02:26:11.818Z,12.30
2019-06-15T02:28:46.462Z,12.20
2019-06-15T02:31:18.252Z,12.20
2019-06-15T02:33:47.556Z,12.20
2019-06-15T02:36:19.779Z,12.20
2019-06-15T02:38:52.831Z,12.30
2019-06-15T02:41:26.532Z,12.40
2019-06-15T02:44:01.255Z,12.40
2019-06-15T02:46:34.592Z,12.50
2019-06-15T02:49:07.395Z,12.50
2019-06-15T02:51:40.259Z,12.60
2019-06-15T02:54:11.991Z,12.70
2019-06-15T02:56:42.888Z,12.90
2019-06-15T02:59:15.935Z,13.00
2019-06-15T03:02:05.666Z,13.20
2019-06-15T03:04:38.814Z,13.30
2019-06-15T03:07:10.095Z,13.50
2019-06-15T03:09:40.323Z,13.70
2019-06-15T03:12:10.722Z,13.80
2019-06-15T03:14:43.791Z,13.90
2019-06-15T03:17:16.855Z,14.10
2019-06-15T03:19:49.647Z,14.30
2019-06-15T03:22:23.332Z,14.70
2019-06-15T03:24:56.677Z,14.90
2019-06-15T03:27:29.494Z,15.10
2019-06-15T03:30:03.553Z,15.20
2019-06-15T03:32:37.409Z,15.30
2019-06-15T03:35:12.891Z,15.50
2019-06-15T03:37:44.639Z,15.60
2019-06-15T03:40:19.867Z,15.80
2019-06-15T03:42:52.895Z,16.00
2019-06-15T03:45:29.663Z,16.20
2019-06-15T03:48:06.596Z,16.30
2019-06-15T03:50:39.475Z,16.30
2019-06-15T03:53:13.415Z,16.40
2019-06-15T03:55:47.391Z,16.40
2019-06-15T03:58:20.929Z,16.50
2019-06-15T04:01:11.601Z,16.60
2019-06-15T04:04:08.623Z,16.70
2019-06-15T04:06:43.222Z,16.80
2019-06-15T04:09:18.719Z,16.90
2019-06-15T04:11:53.734Z,17.00
2019-06-15T04:14:29.666Z,17.10
2019-06-15T04:17:03.601Z,17.20
2019-06-15T04:19:33.629Z,17.30
2019-06-15T04:22:05.706Z,17.40
2019-06-15T04:24:37.505Z,17.50
2019-06-15T04:27:11.434Z,17.60
2019-06-15T04:29:42.559Z,17.80
2019-06-15T04:32:18.221Z,18.20
2019-06-15T04:34:53.998Z,18.50
2019-06-15T04:37:28.640Z,18.80
2019-06-15T04:40:01.749Z,18.80
2019-06-15T04:42:35.048Z,18.70
2019-06-15T04:45:08.479Z,18.70
2019-06-15T04:47:41.012Z,18.70
2019-06-15T04:50:11.327Z,18.70
2019-06-15T04:52:45.311Z,18.90
2019-06-15T04:55:18.503Z,18.90
2019-06-15T04:57:50.483Z,19.00
2019-06-15T05:00:20.750Z,19.20
2019-06-15T05:02:55.487Z,19.40
2019-06-15T05:05:28.459Z,19.50
2019-06-15T05:08:03.042Z,19.70
2019-06-15T05:10:38.683Z,19.70
2019-06-15T05:13:13.164Z,19.70
2019-06-15T05:15:48.825Z,19.70
2019-06-15T05:18:22.296Z,20.10
2019-06-15T05:20:59.074Z,20.30
2019-06-15T05:23:33.278Z,20.40
2019-06-15T05:26:06.961Z,20.50
2019-06-15T05:28:40.776Z,20.50
2019-06-15T05:31:13.823Z,20.20
2019-06-15T05:33:47.495Z,20.10
2019-06-15T05:36:21.089Z,19.90
2019-06-15T05:38:54.687Z,20.00
2019-06-15T05:41:25.766Z,20.00
2019-06-15T05:43:55.439Z,20.00
2019-06-15T05:46:29.055Z,19.90
2019-06-15T05:49:03.678Z,19.90
2019-06-15T05:51:37.409Z,19.90
2019-06-15T05:54:07.417Z,20.00
2019-06-15T05:56:45.985Z,19.90
2019-06-15T05:59:18.149Z,19.80
2019-06-15T06:01:52.112Z,19.80
2019-06-15T06:04:25.036Z,20.00
2019-06-15T06:07:01.641Z,19.90
2019-06-15T06:09:32.487Z,20.00
2019-06-15T06:12:03.043Z,20.00
2019-06-15T06:14:32.347Z,20.00
2019-06-15T06:17:06.303Z,19.80
2019-06-15T06:19:38.532Z,19.70
2019-06-15T06:22:11.746Z,19.80
2019-06-15T06:24:43.530Z,19.90
2019-06-15T06:27:16.261Z,19.90
2019-06-15T06:29:49.867Z,19.90
2019-06-15T06:32:23.711Z,19.90
2019-06-15T06:34:55.082Z,19.70
2019-06-15T06:37:25.472Z,19.70
2019-06-15T06:39:56.191Z,19.70
2019-06-15T06:42:29.032Z,19.80
2019-06-15T06:45:03.174Z,19.80
2019-06-15T06:47:35.299Z,19.90
2019-06-15T06:50:06.291Z,19.90
2019-06-15T06:52:37.356Z,19.90
2019-06-15T06:55:13.885Z,20.00
2019-06-15T06:57:53.341Z,20.10
2019-06-15T07:00:17.311Z,20.20
2019-06-15T07:02:48.039Z,20.30
2019-06-15T07:05:19.967Z,20.30
2019-06-15T07:07:55.424Z,20.30
2019-06-15T07:10:26.768Z,20.40
2019-06-15T07:12:59.779Z,20.50
2019-06-15T07:15:33.470Z,20.40
2019-06-15T07:18:27.959Z,20.50
2019-06-15T07:21:02.749Z,20.50
2019-06-15T07:23:36.508Z,20.60
2019-06-15T07:26:10.791Z,20.60
2019-06-15T07:28:45.407Z,20.70
2019-06-15T07:31:15.332Z,20.60
2019-06-15T07:33:46.091Z,20.70
2019-06-15T07:36:19.912Z,20.70
2019-06-15T07:38:53.780Z,20.80
2019-06-15T07:41:25.075Z,20.90
2019-06-15T07:43:59.853Z,20.90
2019-06-15T07:46:35.167Z,20.90
2019-06-15T07:49:10.028Z,21.00
2019-06-15T07:51:45.239Z,21.10
2019-06-15T07:54:15.253Z,21.20
2019-06-15T07:56:46.267Z,21.30
2019-06-15T07:59:18.183Z,21.40
2019-06-15T08:01:52.001Z,21.50
2019-06-15T08:04:24.188Z,21.50
2019-06-15T08:06:57.928Z,21.60
2019-06-15T08:09:32.697Z,21.60
2019-06-15T08:12:08.287Z,21.60
2019-06-15T08:14:42.951Z,21.60
2019-06-15T08:17:19.972Z,21.60
2019-06-15T08:19:53.862Z,21.70
2019-06-15T08:22:28.555Z,21.70
2019-06-15T08:25:01.253Z,21.80
2019-06-15T08:27:31.214Z,21.70
2019-06-15T08:30:05.828Z,21.80
2019-06-15T08:32:38.198Z,21.80
2019-06-15T08:35:12.768Z,22.00
2019-06-15T08:37:44.895Z,22.10
2019-06-15T08:40:20.955Z,22.10
2019-06-15T08:42:55.520Z,22.20
2019-06-15T08:45:27.752Z,22.20
2019-06-15T08:48:01.543Z,22.30
2019-06-15T08:50:32.176Z,22.20
2019-06-15T08:53:03.243Z,22.30
2019-06-15T08:55:36.669Z,22.30
2019-06-15T08:58:09.151Z,22.40
2019-06-15T09:00:42.847Z,22.40
2019-06-15T09:03:16.707Z,22.40
2019-06-15T09:05:51.359Z,22.40
2019-06-15T09:08:23.004Z,22.40
2019-06-15T09:10:57.497Z,22.40
2019-06-15T09:13:30.792Z,22.50
2019-06-15T09:16:06.691Z,22.70
2019-06-15T09:18:42.255Z,22.80
2019-06-15T09:21:18.471Z,22.80
2019-06-15T09:23:54.756Z,22.70
2019-06-15T09:26:28.565Z,22.90
2019-06-15T09:29:11.215Z,22.90
2019-06-15T09:31:40.799Z,23.00
2019-06-15T09:34:18.942Z,23.00
2019-06-15T09:36:46.880Z,23.00
2019-06-15T09:39:18.945Z,23.00
2019-06-15T09:41:53.835Z,23.00
2019-06-15T09:44:26.223Z,23.10
2019-06-15T09:46:57.275Z,23.20
2019-06-15T09:49:28.903Z,23.20
2019-06-15T09:51:58.600Z,23.20
2019-06-15T09:54:34.537Z,23.10
2019-06-15T09:57:06.853Z,23.20
2019-06-15T09:59:41.382Z,23.30
2019-06-15T10:02:16.199Z,23.30
2019-06-15T10:04:49.886Z,23.40
2019-06-15T10:07:23.687Z,23.40
2019-06-15T10:09:55.946Z,23.40
2019-06-15T10:12:29.736Z,23.40
2019-06-15T10:15:04.003Z,23.50
2019-06-15T10:17:38.133Z,23.50
2019-06-15T10:20:11.628Z,23.50
2019-06-15T10:22:48.493Z,23.60
2019-06-15T10:25:22.724Z,23.70
2019-06-15T10:27:55.426Z,23.90
2019-06-15T10:30:28.736Z,23.90
2019-06-15T10:33:03.264Z,23.90
2019-06-15T10:35:35.648Z,23.80
2019-06-15T10:38:11.418Z,23.90
2019-06-15T10:40:43.778Z,23.90
2019-06-15T10:43:17.832Z,23.80
2019-06-15T10:45:52.963Z,23.80
2019-06-15T10:48:27.558Z,23.90
2019-06-15T10:50:57.573Z,23.90
2019-06-15T10:53:27.959Z,23.90
2019-06-15T10:55:58.112Z,24.00
2019-06-15T10:58:28.074Z,24.00
2019-06-15T11:00:58.206Z,24.00
2019-06-15T11:03:29.951Z,23.80
2019-06-15T11:06:03.744Z,23.80
2019-06-15T11:08:40.747Z,23.80
2019-06-15T11:11:27.327Z,23.90
2019-06-15T11:14:08.903Z,23.90
2019-06-15T11:16:42.754Z,24.00
2019-06-15T11:19:17.776Z,23.90
2019-06-15T11:21:50.527Z,23.90
2019-06-15T11:24:24.315Z,23.90
2019-06-15T11:26:57.536Z,23.90
2019-06-15T11:29:32.129Z,23.90
2019-06-15T11:32:04.503Z,23.90
2019-06-15T11:34:38.119Z,24.10
2019-06-15T11:37:11.805Z,24.00
2019-06-15T11:39:42.142Z,24.10
2019-06-15T11:42:15.177Z,24.10
2019-06-15T11:44:50.043Z,24.10
2019-06-15T11:47:20.608Z,24.10
2019-06-15T11:49:50.857Z,24.20
2019-06-15T11:52:23.329Z,24.30
2019-06-15T11:54:58.116Z,24.40
2019-06-15T11:57:30.414Z,24.40
2019-06-15T12:00:06.099Z,24.40
2019-06-15T12:02:39.336Z,24.40
2019-06-15T12:05:12.311Z,24.40
2019-06-15T12:07:44.512Z,24.50
2019-06-15T12:10:18.815Z,24.60
2019-06-15T12:12:51.039Z,24.50
2019-06-15T12:15:25.326Z,24.50
2019-06-15T12:17:57.807Z,24.50
2019-06-15T12:20:32.511Z,24.50
2019-06-15T12:23:03.860Z,24.50
2019-06-15T12:25:37.858Z,24.50
2019-06-15T12:28:11.131Z,24.60
2019-06-15T12:30:47.768Z,24.40
2019-06-15T12:33:20.001Z,24.30
2019-06-15T12:35:56.400Z,24.40
2019-06-15T12:38:31.647Z,24.40
2019-06-15T12:41:07.231Z,24.50
2019-06-15T12:43:40.767Z,24.60
2019-06-15T12:46:14.384Z,24.70
2019-06-15T12:48:49.155Z,24.80
2019-06-15T12:51:22.975Z,24.80
2019-06-15T12:53:52.906Z,24.70
2019-06-15T12:56:26.412Z,24.70
2019-06-15T12:59:01.095Z,24.80
2019-06-15T13:01:34.304Z,25.00
2019-06-15T13:04:07.935Z,25.00
2019-06-15T13:06:41.685Z,25.00
2019-06-15T13:09:19.234Z,25.00
2019-06-15T13:11:54.114Z,24.90
2019-06-15T13:14:32.851Z,24.90
2019-06-15T13:17:05.028Z,24.90
2019-06-15T13:19:35.535Z,24.90
2019-06-15T13:22:07.909Z,25.00
2019-06-15T13:24:40.609Z,25.10
2019-06-15T13:27:13.728Z,25.10
2019-06-15T13:29:43.852Z,25.20
2019-06-15T13:32:14.528Z,25.30
2019-06-15T13:34:46.629Z,25.20
2019-06-15T13:37:23.136Z,25.10
2019-06-15T13:39:57.319Z,25.10
2019-06-15T13:42:31.446Z,25.00
2019-06-15T13:45:06.412Z,25.00
2019-06-15T13:47:41.066Z,25.00
2019-06-15T13:50:14.431Z,25.00
2019-06-15T13:52:48.964Z,25.00
2019-06-15T13:55:22.039Z,25.00
2019-06-15T13:57:57.601Z,25.00
2019-06-15T14:00:32.142Z,25.10
2019-06-15T14:03:03.404Z,25.10
2019-06-15T14:05:33.529Z,25.10
2019-06-15T14:08:04.727Z,25.10
2019-06-15T14:10:39.427Z,25.10
2019-06-15T14:13:14.975Z,25.10
2019-06-15T14:15:46.964Z,25.10
2019-06-15T14:18:16.672Z,25.10
2019-06-15T14:20:46.859Z,25.10
2019-06-15T14:23:18.228Z,25.10
2019-06-15T14:25:50.752Z,25.10
2019-06-15T14:28:23.472Z,25.10
2019-06-15T14:30:55.588Z,25.10
2019-06-15T14:33:28.525Z,25.20
2019-06-15T14:36:02.211Z,25.20
2019-06-15T14:38:34.412Z,25.20
2019-06-15T14:41:08.441Z,25.20
2019-06-15T14:43:41.065Z,25.20
2019-06-15T14:46:13.863Z,25.20
2019-06-15T14:48:47.903Z,25.30
2019-06-15T14:51:20.224Z,25.30
2019-06-15T14:53:56.305Z,25.30
2019-06-15T14:56:27.167Z,25.30
2019-06-15T14:58:59.362Z,25.30
2019-06-15T15:01:35.122Z,25.30
2019-06-15T15:04:07.043Z,25.40
2019-06-15T15:06:43.625Z,25.50
2019-06-15T15:09:13.623Z,25.60
2019-06-15T15:11:46.410Z,25.50
2019-06-15T15:14:18.589Z,25.40
2019-06-15T15:16:56.842Z,25.40
2019-06-15T15:19:29.701Z,25.50
2019-06-15T15:22:02.155Z,25.50
2019-06-15T15:24:34.131Z,25.50
2019-06-15T15:27:07.714Z,25.50
2019-06-15T15:29:46.381Z,25.60
2019-06-15T15:32:27.022Z,25.70
2019-06-15T15:34:56.003Z,25.80
2019-06-15T15:37:30.817Z,25.90
2019-06-15T15:40:03.455Z,26.00
2019-06-15T15:42:33.109Z,26.00
2019-06-15T15:45:07.144Z,26.00
2019-06-15T15:47:44.800Z,26.10
2019-06-15T15:50:17.644Z,26.20
2019-06-15T15:52:51.847Z,26.30
2019-06-15T15:55:26.480Z,26.50
2019-06-15T15:57:59.492Z,26.80
2019-06-15T16:00:37.095Z,27.00
2019-06-15T16:03:16.014Z,27.50
2019-06-15T16:05:50.975Z,28.90
2019-06-15T16:08:25.242Z,30.50
2019-06-15T16:10:58.723Z,31.50
2019-06-15T16:13:33.033Z,32.10
2019-06-15T16:16:06.666Z,33.00
2019-06-15T16:18:39.487Z,34.00
2019-06-15T16:21:10.101Z,34.90
2019-06-15T16:23:40.686Z,35.30
2019-06-15T16:26:10.647Z,36.10
2019-06-15T16:28:45.896Z,36.70
2019-06-15T16:31:18.710Z,36.70
2019-06-15T16:33:49.309Z,36.60
2019-06-15T16:36:22.239Z,36.80
2019-06-15T16:38:55.485Z,37.20
2019-06-15T16:41:27.214Z,37.60
2019-06-15T16:44:00.042Z,37.50
2019-06-15T16:46:33.371Z,37.50
2019-06-15T16:49:07.051Z,37.60
2019-06-15T16:51:42.733Z,37.50
2019-06-15T16:54:16.723Z,37.10
2019-06-15T16:56:50.815Z,37.10
2019-06-15T16:59:24.431Z,37.20
2019-06-15T17:01:57.225Z,37.40
2019-06-15T17:04:30.243Z,38.00
2019-06-15T17:07:03.966Z,38.10
2019-06-15T17:09:38.048Z,38.30
2019-06-15T17:12:09.655Z,38.30
2019-06-15T17:14:41.652Z,38.20
2019-06-15T17:17:14.126Z,37.80
2019-06-15T17:19:46.995Z,37.60
2019-06-15T17:22:21.381Z,37.20
2019-06-15T17:24:56.406Z,36.70
2019-06-15T17:27:30.723Z,36.50
2019-06-15T17:30:02.332Z,36.40
2019-06-15T17:32:36.962Z,36.10
2019-06-15T17:35:09.999Z,35.70
2019-06-15T17:37:46.898Z,35.70
2019-06-15T17:40:21.023Z,35.70
2019-06-15T17:42:55.728Z,36.10
2019-06-15T17:45:29.060Z,36.20
2019-06-15T17:48:03.287Z,36.20
2019-06-15T17:50:41.472Z,36.20
2019-06-15T17:53:16.975Z,36.00
2019-06-15T17:55:52.767Z,36.00
2019-06-15T17:58:26.190Z,35.70
2019-06-15T18:00:57.516Z,35.50
2019-06-15T18:03:30.715Z,35.50
2019-06-15T18:06:01.598Z,35.50
2019-06-15T18:08:33.108Z,35.70
2019-06-15T18:11:07.883Z,35.30
2019-06-15T18:13:40.375Z,35.30
2019-06-15T18:16:14.066Z,35.10
2019-06-15T18:18:47.206Z,34.70
2019-06-15T18:21:17.584Z,33.80
2019-06-15T18:23:50.699Z,32.40
2019-06-15T18:26:23.883Z,31.10
2019-06-15T18:28:57.003Z,29.80
2019-06-15T18:31:30.727Z,28.60
2019-06-15T18:34:09.510Z,27.80
2019-06-15T18:36:36.584Z,27.20
2019-06-15T18:39:11.229Z,26.60
2019-06-15T18:41:46.329Z,26.20
2019-06-15T18:44:18.011Z,25.80
2019-06-15T18:46:51.692Z,25.50
2019-06-15T18:49:23.158Z,25.20
2019-06-15T18:51:56.882Z,25.00
2019-06-15T18:54:26.630Z,24.70
2019-06-15T18:56:57.335Z,24.50
2019-06-15T18:59:27.937Z,24.40
2019-06-15T19:01:58.464Z,24.20
2019-06-15T19:04:31.259Z,24.00
2019-06-15T19:07:06.639Z,23.80
2019-06-15T19:09:38.850Z,23.60
2019-06-15T19:12:11.229Z,23.40
2019-06-15T19:14:43.904Z,23.30
2019-06-15T19:17:17.718Z,23.10
2019-06-15T19:19:49.571Z,22.90
2019-06-15T19:22:19.503Z,22.80
2019-06-15T19:24:50.733Z,22.70
2019-06-15T19:27:25.963Z,22.60
2019-06-15T19:30:00.593Z,22.50
2019-06-15T19:32:36.625Z,22.30
2019-06-15T19:35:08.864Z,22.20
2019-06-15T19:37:40.535Z,22.10
2019-06-15T19:40:16.146Z,22.00
2019-06-15T19:42:48.772Z,21.90
2019-06-15T19:45:21.960Z,21.70
2019-06-15T19:47:54.755Z,21.60
2019-06-15T19:50:28.382Z,21.40
2019-06-15T19:53:07.380Z,21.30
2019-06-15T19:55:46.567Z,21.10
2019-06-15T19:58:19.360Z,21.00
2019-06-15T20:00:51.053Z,20.90
2019-06-15T20:03:27.306Z,20.70
2019-06-15T20:05:58.190Z,20.60
2019-06-15T20:08:32.872Z,20.50
2019-06-15T20:11:07.192Z,20.40
2019-06-15T20:13:42.072Z,20.30
2019-06-15T20:16:12.070Z,20.20
2019-06-15T20:18:42.980Z,20.10
2019-06-15T20:21:18.617Z,20.00
2019-06-15T20:23:53.403Z,19.90
2019-06-15T20:26:26.764Z,19.80
2019-06-15T20:29:04.030Z,19.70
2019-06-15T20:31:38.603Z,19.60
2019-06-15T20:34:12.227Z,19.40
2019-06-15T20:36:44.191Z,19.30
2019-06-15T20:39:16.478Z,19.20
2019-06-15T20:41:50.375Z,19.10
2019-06-15T20:44:25.950Z,18.90
2019-06-15T20:47:06.565Z,18.90
2019-06-15T20:49:46.419Z,18.70
2019-06-15T20:52:21.600Z,18.50
2019-06-15T20:54:59.043Z,18.40
2019-06-15T20:57:36.364Z,18.30
2019-06-15T21:00:11.403Z,18.20
2019-06-15T21:02:48.923Z,18.20
2019-06-15T21:05:33.637Z,18.10
2019-06-15T21:07:57.685Z,18.00
2019-06-15T21:10:30.666Z,18.00
2019-06-15T21:13:05.608Z,17.90
2019-06-15T21:15:48.996Z,17.80
2019-06-15T21:18:20.971Z,17.70
2019-06-15T21:20:51.061Z,17.60
2019-06-15T21:23:21.759Z,17.40
2019-06-15T21:25:52.527Z,17.40
2019-06-15T21:28:22.366Z,17.40
2019-06-15T21:30:53.705Z,17.30
2019-06-15T21:33:29.696Z,17.30
2019-06-15T21:36:06.502Z,17.30
2019-06-15T21:38:41.676Z,17.10
2019-06-15T21:41:26.216Z,17.00
2019-06-15T21:44:10.816Z,16.90
2019-06-15T21:46:46.806Z,16.80
2019-06-15T21:49:20.639Z,16.80
2019-06-15T21:51:52.996Z,16.70
2019-06-15T21:54:22.778Z,16.60
2019-06-15T21:56:56.448Z,16.50
2019-06-15T21:59:32.066Z,16.50
2019-06-15T22:02:18.331Z,16.30
2019-06-15T22:04:53.485Z,16.30
2019-06-15T22:07:27.196Z,16.20
2019-06-15T22:09:58.853Z,16.10
2019-06-15T22:12:32.383Z,16.10
2019-06-15T22:15:06.891Z,16.00
2019-06-15T22:17:40.191Z,16.00
2019-06-15T22:20:16.884Z,15.90
2019-06-15T22:22:52.499Z,15.80
2019-06-15T22:25:26.549Z,15.60
2019-06-15T22:27:59.271Z,15.50
2019-06-15T22:30:29.920Z,15.50
2019-06-15T22:33:00.499Z,15.40
2019-06-15T22:35:32.447Z,15.50
2019-06-15T22:38:07.266Z,15.50
2019-06-15T22:40:38.789Z,15.50
2019-06-15T22:43:13.867Z,15.40
2019-06-15T22:45:49.854Z,15.40
2019-06-15T22:48:18.882Z,15.40
2019-06-15T22:50:49.416Z,15.40
2019-06-15T22:53:20.055Z,15.40
2019-06-15T22:55:53.591Z,15.30
2019-06-15T22:58:29.635Z,15.30
2019-06-15T23:01:06.130Z,15.20
2019-06-15T23:03:39.179Z,15.10
2019-06-15T23:06:09.758Z,15.00
2019-06-15T23:08:40.782Z,14.90
2019-06-15T23:11:11.288Z,15.00
2019-06-15T23:13:42.001Z,14.90
2019-06-15T23:16:15.367Z,14.90
2019-06-15T23:18:48.031Z,14.90
2019-06-15T23:21:20.440Z,14.80
2019-06-15T23:23:52.835Z,14.70
2019-06-15T23:26:23.512Z,14.60
2019-06-15T23:28:58.143Z,14.60
2019-06-15T23:31:31.136Z,14.60
2019-06-15T23:34:06.993Z,14.60
2019-06-15T23:36:52.850Z,14.50
2019-06-15T23:39:11.677Z,14.50
2019-06-15T23:41:41.789Z,14.50
2019-06-15T23:44:11.743Z,14.50
2019-06-15T23:46:46.933Z,14.40
2019-06-15T23:49:18.413Z,14.40
2019-06-15T23:51:50.915Z,14.30
2019-06-15T23:54:23.584Z,14.20
2019-06-15T23:56:57.695Z,14.10
2019-06-15T23:59:28.687Z,14.10
